Time;durP1;ratioP1;P1;durP2;ratioP2;P2;SDS_P1;SDS_P2;PMS_P1;PMS_P2;Temp;Humidity;BMP_temperature;BMP_pressure;BME280_temperature;BME280_humidity;BME280_pressure;Samples;Min_cycle;Max_cycle;Signal;HPM_P1;HPM_P2
2021/10/03 00:01:27;;;;;;;15.05;9.80;;;;;;;;;;5032974;28;20073;-80
2021/10/03 00:03:55;;;;;;;14.20;9.88;;;;;;;;;;5031931;28;20041;-75
2021/10/03 00:06:23;;;;;;;15.57;10.25;;;;;;;;;;5031670;28;20494;-76
2021/10/03 00:08:54;;;;;;;17.60;9.70;;;;;;;;;;5014931;28;20064;-76
2021/10/03 00:11:24;;;;;;;19.10;9.60;;;;;;;;;;5033137;28;20108;-75
2021/10/03 00:13:53;;;;;;;16.02;9.75;;;;;;;;;;5033445;28;20073;-82
2021/10/03 00:16:23;;;;;;;17.20;9.70;;;;;;;;;;5031195;28;20056;-76
2021/10/03 00:18:52;;;;;;;12.90;9.27;;;;;;;;;;5031581;28;20107;-81
2021/10/03 00:21:38;;;;;;;15.15;9.48;;;;;;;;;;5032635;28;20045;-75
2021/10/03 00:24:05;;;;;;;15.77;9.70;;;;;;;;;;5031276;28;20048;-80
2021/10/03 00:26:36;;;;;;;14.13;9.73;;;;;;;;;;5031580;28;20049;-82
2021/10/03 00:29:03;;;;;;;12.55;9.07;;;;;;;;;;5032889;28;20072;-80
2021/10/03 00:31:31;;;;;;;22.38;11.32;;;;;;;;;;5032795;28;20041;-73
2021/10/03 00:33:59;;;;;;;15.85;10.50;;;;;;;;;;5032520;28;20056;-75
2021/10/03 00:36:31;;;;;;;21.17;11.27;;;;;;;;;;5032357;28;20057;-79
2021/10/03 00:38:59;;;;;;;18.77;11.63;;;;;;;;;;5031950;28;20375;-75
2021/10/03 00:41:28;;;;;;;17.95;11.07;;;;;;;;;;5032189;28;20048;-82
2021/10/03 00:43:58;;;;;;;16.02;9.30;;;;;;;;;;5031562;28;20049;-76
2021/10/03 00:46:27;;;;;;;15.98;9.40;;;;;;;;;;5030671;28;20140;-75
2021/10/03 00:48:54;;;;;;;22.23;12.70;;;;;;;;;;5031672;28;20057;-76
2021/10/03 00:51:23;;;;;;;19.25;11.43;;;;;;;;;;5031995;28;20045;-82
2021/10/03 00:53:51;;;;;;;16.85;11.60;;;;;;;;;;5029793;28;20049;-80
2021/10/03 00:56:19;;;;;;;19.33;11.45;;;;;;;;;;5011971;28;20045;-82
2021/10/03 00:58:46;;;;;;;19.77;11.93;;;;;;;;;;5015070;28;20069;-82
2021/10/03 01:01:14;;;;;;;19.98;12.63;;;;;;;;;;5014612;28;20477;-76
2021/10/03 01:03:43;;;;;;;15.93;11.23;;;;;;;;;;5015837;28;20511;-74
2021/10/03 01:06:13;;;;;;;21.30;11.63;;;;;;;;;;4998479;28;20069;-76
2021/10/03 01:08:41;;;;;;;18.92;11.63;;;;;;;;;;5015515;28;20125;-82
2021/10/03 01:11:08;;;;;;;17.40;11.15;;;;;;;;;;5014596;28;20111;-82
2021/10/03 01:13:36;;;;;;;22.60;11.50;;;;;;;;;;5014854;28;20125;-79
2021/10/03 01:16:07;;;;;;;15.57;11.45;;;;;;;;;;5015500;28;20129;-75
2021/10/03 01:18:43;;;;;;;13.45;9.63;;;;;;;;;;5014365;28;20045;-79
2021/10/03 01:21:15;;;;;;;16.33;10.43;;;;;;;;;;5013959;28;20096;-79
2021/10/03 01:23:43;;;;;;;17.33;11.05;;;;;;;;;;5014516;28;20501;-80
2021/10/03 01:26:14;;;;;;;17.55;10.38;;;;;;;;;;5015892;28;20046;-74
2021/10/03 01:28:43;;;;;;;16.48;9.65;;;;;;;;;;5014605;28;20050;-79
2021/10/03 01:31:10;;;;;;;18.05;9.13;;;;;;;;;;5015220;28;20046;-74
2021/10/03 01:33:40;;;;;;;15.38;9.07;;;;;;;;;;5015392;28;20050;-74
2021/10/03 01:36:12;;;;;;;18.33;6.95;;;;;;;;;;5014993;28;20041;-74
2021/10/03 01:38:40;;;;;;;17.50;6.75;;;;;;;;;;5015350;28;20456;-75
2021/10/03 01:41:08;;;;;;;11.43;7.03;;;;;;;;;;5013721;28;20049;-76
2021/10/03 01:43:36;;;;;;;13.90;7.43;;;;;;;;;;5015059;28;20038;-80
2021/10/03 01:46:04;;;;;;;13.95;7.57;;;;;;;;;;5015370;28;20042;-80
2021/10/03 01:48:46;;;;;;;17.92;6.95;;;;;;;;;;5014814;28;20057;-76
2021/10/03 01:51:15;;;;;;;10.80;6.85;;;;;;;;;;5015239;28;20053;-82
2021/10/03 01:53:44;;;;;;;14.38;6.35;;;;;;;;;;5015389;28;20053;-75
2021/10/03 01:56:15;;;;;;;13.85;5.68;;;;;;;;;;5014767;28;20509;-75
2021/10/03 01:58:45;;;;;;;15.27;6.28;;;;;;;;;;5013771;28;20057;-82
2021/10/03 02:01:15;;;;;;;10.15;5.93;;;;;;;;;;5014701;28;20048;-82
2021/10/03 02:03:44;;;;;;;13.23;5.85;;;;;;;;;;5013394;28;20133;-77
2021/10/03 02:06:12;;;;;;;9.57;5.68;;;;;;;;;;5014748;28;20041;-76
2021/10/03 02:08:40;;;;;;;8.23;5.70;;;;;;;;;;5013688;28;20038;-79
2021/10/03 02:11:08;;;;;;;9.57;5.88;;;;;;;;;;5014958;28;20112;-78
2021/10/03 02:13:37;;;;;;;11.18;5.93;;;;;;;;;;5014774;28;20037;-76
2021/10/03 02:16:06;;;;;;;11.05;6.10;;;;;;;;;;5014612;28;20042;-81
2021/10/03 02:18:39;;;;;;;9.18;5.47;;;;;;;;;;5013054;28;20037;-77
2021/10/03 02:21:09;;;;;;;7.40;5.68;;;;;;;;;;5012900;28;20057;-75
2021/10/03 02:23:37;;;;;;;9.80;5.40;;;;;;;;;;5029920;28;20132;-80
2021/10/03 02:26:06;;;;;;;9.57;5.75;;;;;;;;;;5013068;28;20069;-74
2021/10/03 02:28:35;;;;;;;7.32;5.03;;;;;;;;;;5014647;28;20034;-73
2021/10/03 02:31:11;;;;;;;8.20;5.28;;;;;;;;;;5014128;28;20052;-80
2021/10/03 02:33:41;;;;;;;11.38;5.97;;;;;;;;;;5013987;28;20066;-78
2021/10/03 02:36:12;;;;;;;9.80;6.18;;;;;;;;;;5014114;28;20061;-74
2021/10/03 02:38:39;;;;;;;9.75;6.40;;;;;;;;;;5013366;28;20045;-79
2021/10/03 02:41:07;;;;;;;10.30;6.28;;;;;;;;;;5014204;28;20030;-77
2021/10/03 02:43:36;;;;;;;14.38;6.80;;;;;;;;;;5012902;28;20475;-75
2021/10/03 02:46:05;;;;;;;10.38;6.45;;;;;;;;;;5014296;28;20128;-74
2021/10/03 02:48:35;;;;;;;8.77;5.88;;;;;;;;;;5012398;28;20495;-74
2021/10/03 02:51:03;;;;;;;6.68;5.85;;;;;;;;;;5014305;28;20045;-77
2021/10/03 02:53:33;;;;;;;9.20;6.05;;;;;;;;;;5013219;28;20392;-76
2021/10/03 02:56:01;;;;;;;8.63;6.35;;;;;;;;;;5013782;28;20038;-77
2021/10/03 02:58:29;;;;;;;9.23;6.45;;;;;;;;;;5013559;28;20420;-75
2021/10/03 03:00:57;;;;;;;9.27;6.60;;;;;;;;;;5014117;28;20491;-81
2021/10/03 03:03:25;;;;;;;7.22;5.90;;;;;;;;;;5013470;28;20044;-76
2021/10/03 03:05:54;;;;;;;8.02;6.43;;;;;;;;;;5013745;28;20042;-75
2021/10/03 03:08:22;;;;;;;9.30;6.53;;;;;;;;;;5013846;28;20042;-75
2021/10/03 03:10:50;;;;;;;7.22;5.70;;;;;;;;;;5012394;28;20410;-79
2021/10/03 03:13:19;;;;;;;7.90;5.80;;;;;;;;;;5012760;28;20073;-76
2021/10/03 03:15:47;;;;;;;7.60;5.55;;;;;;;;;;5013669;28;20042;-75
2021/10/03 03:18:15;;;;;;;6.93;5.32;;;;;;;;;;5012694;28;20128;-79
2021/10/03 03:20:44;;;;;;;7.82;5.75;;;;;;;;;;5013333;28;20050;-73
2021/10/03 03:23:12;;;;;;;8.07;5.97;;;;;;;;;;5012319;28;20046;-79
2021/10/03 03:25:40;;;;;;;8.95;6.25;;;;;;;;;;5013725;28;20397;-77
2021/10/03 03:28:09;;;;;;;6.88;4.80;;;;;;;;;;5013465;28;20072;-79
2021/10/03 03:30:41;;;;;;;6.40;4.70;;;;;;;;;;5011979;28;20042;-74
2021/10/03 03:33:09;;;;;;;8.63;5.75;;;;;;;;;;5011962;28;20107;-76
2021/10/03 03:35:37;;;;;;;8.00;6.10;;;;;;;;;;5013370;28;20038;-75
2021/10/03 03:38:05;;;;;;;8.95;5.60;;;;;;;;;;5028445;28;20092;-79
2021/10/03 03:40:36;;;;;;;7.97;5.57;;;;;;;;;;5013049;28;20046;-77
2021/10/03 03:43:03;;;;;;;8.57;5.50;;;;;;;;;;5013148;28;20041;-81
2021/10/03 03:45:31;;;;;;;11.50;6.57;;;;;;;;;;5011666;28;20046;-76
2021/10/03 03:48:01;;;;;;;6.88;5.82;;;;;;;;;;5013128;28;20432;-74
2021/10/03 03:50:31;;;;;;;9.15;6.40;;;;;;;;;;5011734;28;20050;-74
2021/10/03 03:52:58;;;;;;;7.38;6.25;;;;;;;;;;5013529;28;20053;-76
2021/10/03 03:55:27;;;;;;;7.55;6.32;;;;;;;;;;5018811;28;20041;-75
2021/10/03 03:58:02;;;;;;;8.73;6.32;;;;;;;;;;5032508;28;20051;-73
2021/10/03 04:00:30;;;;;;;7.70;6.45;;;;;;;;;;5032192;28;20068;-79
2021/10/03 04:02:57;;;;;;;9.55;6.45;;;;;;;;;;5031482;28;20045;-76
2021/10/03 04:05:26;;;;;;;9.70;6.60;;;;;;;;;;5032763;28;20438;-79
2021/10/03 04:07:56;;;;;;;8.93;6.50;;;;;;;;;;5031561;28;20042;-74
2021/10/03 04:10:23;;;;;;;7.38;6.05;;;;;;;;;;5031441;28;20415;-77
2021/10/03 04:12:51;;;;;;;10.57;6.63;;;;;;;;;;5032814;28;20097;-76
2021/10/03 04:15:22;;;;;;;11.63;5.70;;;;;;;;;;5031801;28;20053;-77
2021/10/03 04:17:49;;;;;;;10.45;6.15;;;;;;;;;;5032639;28;20046;-74
2021/10/03 04:20:17;;;;;;;6.15;5.45;;;;;;;;;;5032669;28;20080;-82
2021/10/03 04:22:44;;;;;;;6.50;5.80;;;;;;;;;;5032529;28;20045;-79
2021/10/03 04:25:12;;;;;;;6.30;5.07;;;;;;;;;;5032407;28;20380;-76
2021/10/03 04:27:40;;;;;;;6.35;5.50;;;;;;;;;;5031373;28;20476;-75
2021/10/03 04:30:07;;;;;;;8.00;5.65;;;;;;;;;;5032125;28;20120;-80
2021/10/03 04:32:35;;;;;;;7.60;5.82;;;;;;;;;;5036294;28;20056;-75
2021/10/03 04:35:03;;;;;;;6.72;5.72;;;;;;;;;;5036119;28;20046;-75
2021/10/03 04:37:31;;;;;;;6.38;5.25;;;;;;;;;;5034854;28;20049;-77
2021/10/03 04:39:59;;;;;;;7.00;4.80;;;;;;;;;;5036097;28;20047;-80
2021/10/03 04:42:26;;;;;;;7.20;5.07;;;;;;;;;;5036193;28;20037;-80
2021/10/03 04:44:55;;;;;;;6.25;5.43;;;;;;;;;;5035814;28;20052;-75
2021/10/03 04:47:23;;;;;;;6.75;5.53;;;;;;;;;;5036331;28;20076;-75
2021/10/03 04:49:53;;;;;;;7.50;5.85;;;;;;;;;;5036097;28;20137;-77
2021/10/03 04:52:22;;;;;;;6.90;5.68;;;;;;;;;;5036268;28;20045;-75
2021/10/03 04:54:49;;;;;;;6.40;5.18;;;;;;;;;;5035751;28;20515;-76
2021/10/03 04:57:18;;;;;;;7.57;4.97;;;;;;;;;;5034685;28;20383;-79
2021/10/03 04:59:47;;;;;;;6.63;5.60;;;;;;;;;;5035486;28;20125;-79
2021/10/03 05:02:15;;;;;;;8.07;6.13;;;;;;;;;;5034847;28;20038;-76
2021/10/03 05:04:43;;;;;;;8.38;5.32;;;;;;;;;;5034435;28;20537;-75
2021/10/03 05:07:12;;;;;;;5.82;5.22;;;;;;;;;;5035791;28;20072;-76
2021/10/03 05:09:39;;;;;;;7.40;5.45;;;;;;;;;;5051245;28;20479;-79
2021/10/03 05:12:08;;;;;;;7.70;5.90;;;;;;;;;;5034540;28;20064;-81
2021/10/03 05:14:36;;;;;;;6.97;5.65;;;;;;;;;;5050588;28;20041;-76
2021/10/03 05:17:04;;;;;;;7.68;6.00;;;;;;;;;;5035415;28;20378;-79
2021/10/03 05:19:34;;;;;;;7.22;6.07;;;;;;;;;;5035348;28;20045;-77
2021/10/03 05:22:03;;;;;;;7.60;6.13;;;;;;;;;;5035620;28;20099;-81
2021/10/03 05:24:34;;;;;;;8.55;6.15;;;;;;;;;;5035682;28;20129;-75
2021/10/03 05:27:02;;;;;;;8.60;5.85;;;;;;;;;;5035021;28;20045;-80
2021/10/03 05:29:30;;;;;;;9.25;5.93;;;;;;;;;;5034025;28;20072;-75
2021/10/03 05:31:58;;;;;;;6.68;5.95;;;;;;;;;;5050758;28;20120;-81
2021/10/03 05:34:25;;;;;;;6.32;5.63;;;;;;;;;;5035217;28;20168;-79
2021/10/03 05:36:53;;;;;;;8.07;6.40;;;;;;;;;;5033845;28;20132;-76
2021/10/03 05:39:21;;;;;;;8.80;6.57;;;;;;;;;;5034991;28;20042;-76
2021/10/03 05:41:48;;;;;;;10.02;6.63;;;;;;;;;;5034349;28;20034;-80
2021/10/03 05:44:16;;;;;;;8.23;6.50;;;;;;;;;;5033806;28;20042;-81
2021/10/03 05:46:47;;;;;;;8.18;6.85;;;;;;;;;;5035060;28;20572;-80
2021/10/03 05:49:14;;;;;;;7.80;6.38;;;;;;;;;;5034136;28;20506;-76
2021/10/03 05:51:46;;;;;;;8.05;6.10;;;;;;;;;;5033554;28;20087;-77
2021/10/03 05:54:14;;;;;;;7.72;6.43;;;;;;;;;;5033217;28;20052;-75
2021/10/03 05:56:46;;;;;;;7.97;6.55;;;;;;;;;;5034676;28;20124;-76
2021/10/03 05:59:14;;;;;;;;;;;;;;;;;;5033795;28;20140;-81
2021/10/03 06:01:42;;;;;;;7.32;5.97;;;;;;;;;;5016749;28;19921;-80
2021/10/03 06:04:14;;;;;;;7.95;6.10;;;;;;;;;;5033023;28;20053;-80
2021/10/03 06:06:42;;;;;;;8.52;6.25;;;;;;;;;;5034241;28;20041;-80
2021/10/03 06:09:16;;;;;;;7.82;6.00;;;;;;;;;;5034172;28;20176;-79
2021/10/03 06:11:47;;;;;;;11.18;6.35;;;;;;;;;;5033678;28;20065;-79
2021/10/03 06:14:15;;;;;;;7.18;5.65;;;;;;;;;;5032771;28;20061;-79
2021/10/03 06:16:43;;;;;;;8.10;6.60;;;;;;;;;;5034334;28;20037;-77
2021/10/03 06:19:13;;;;;;;6.50;5.68;;;;;;;;;;5034332;28;20410;-79
2021/10/03 06:21:41;;;;;;;7.93;5.97;;;;;;;;;;5034120;28;20045;-79
2021/10/03 06:24:18;;;;;;;9.60;6.50;;;;;;;;;;5033028;28;20395;-75
2021/10/03 06:26:48;;;;;;;10.23;7.88;;;;;;;;;;5033994;28;20048;-77
2021/10/03 06:29:16;;;;;;;9.40;6.68;;;;;;;;;;5034281;28;20048;-76
2021/10/03 06:31:44;;;;;;;9.98;6.65;;;;;;;;;;5033351;28;20048;-77
2021/10/03 06:34:15;;;;;;;7.72;6.50;;;;;;;;;;5032627;28;20054;-80
2021/10/03 06:36:43;;;;;;;9.85;7.88;;;;;;;;;;5034093;28;20140;-80
2021/10/03 06:39:15;;;;;;;12.25;7.95;;;;;;;;;;5033913;28;20124;-76
2021/10/03 06:41:46;;;;;;;20.58;18.20;;;;;;;;;;5033533;28;20045;-80
2021/10/03 06:44:14;;;;;;;14.20;10.20;;;;;;;;;;5033826;28;20048;-80
2021/10/03 06:46:43;;;;;;;12.20;9.95;;;;;;;;;;5033832;28;20391;-80
2021/10/03 06:49:11;;;;;;;14.65;8.57;;;;;;;;;;5034094;28;20037;-80
2021/10/03 06:51:43;;;;;;;11.30;8.63;;;;;;;;;;5032916;28;20091;-77
2021/10/03 06:54:11;;;;;;;15.00;9.43;;;;;;;;;;5031405;28;20081;-80
2021/10/03 06:56:38;;;;;;;14.55;10.40;;;;;;;;;;5032261;28;20041;-81
2021/10/03 06:59:08;;;;;;;18.17;10.05;;;;;;;;;;5016575;28;20076;-77
2021/10/03 07:01:36;;;;;;;13.93;10.05;;;;;;;;;;5033676;28;20132;-80
2021/10/03 07:04:04;;;;;;;14.23;9.68;;;;;;;;;;5033550;28;20095;-79
2021/10/03 07:06:35;;;;;;;14.02;8.88;;;;;;;;;;5033547;28;20050;-78
2021/10/03 07:09:04;;;;;;;14.65;9.38;;;;;;;;;;5032911;28;20048;-77
2021/10/03 07:11:32;;;;;;;12.35;8.85;;;;;;;;;;5033525;28;20459;-77
2021/10/03 07:14:01;;;;;;;14.10;9.32;;;;;;;;;;5032761;28;20128;-77
2021/10/03 07:16:32;;;;;;;11.13;8.30;;;;;;;;;;5032901;28;20549;-74
2021/10/03 07:19:01;;;;;;;8.52;6.78;;;;;;;;;;5018928;28;20530;-77
2021/10/03 07:21:28;;;;;;;9.57;6.88;;;;;;;;;;5023475;28;20041;-76
2021/10/03 07:23:57;;;;;;;8.27;6.25;;;;;;;;;;5029828;28;20132;-76
2021/10/03 07:26:25;;;;;;;7.20;5.95;;;;;;;;;;5031799;28;20403;-78
2021/10/03 07:28:53;;;;;;;13.25;7.93;;;;;;;;;;5023166;28;20044;-79
2021/10/03 07:31:22;;;;;;;13.15;6.95;;;;;;;;;;5048006;28;20068;-75
2021/10/03 07:33:50;;;;;;;9.88;7.18;;;;;;;;;;5032903;28;20045;-78
2021/10/03 07:36:19;;;;;;;11.57;6.90;;;;;;;;;;5032599;28;20045;-78
2021/10/03 07:38:47;;;;;;;10.43;6.75;;;;;;;;;;5031245;28;20051;-78
2021/10/03 07:41:17;;;;;;;9.20;6.28;;;;;;;;;;5031619;28;20079;-83
2021/10/03 07:43:49;;;;;;;10.40;6.57;;;;;;;;;;5032742;28;20112;-78
2021/10/03 07:46:17;;;;;;;9.07;6.43;;;;;;;;;;5033391;28;20046;-85
2021/10/03 07:48:45;;;;;;;9.43;6.70;;;;;;;;;;5032963;28;20124;-78
2021/10/03 07:51:14;;;;;;;10.13;6.25;;;;;;;;;;5031811;28;20121;-88
2021/10/03 07:53:42;;;;;;;9.43;6.72;;;;;;;;;;5031257;28;20141;-83
2021/10/03 07:56:10;;;;;;;7.30;5.97;;;;;;;;;;5032542;28;20050;-80
2021/10/03 07:58:39;;;;;;;5.63;4.80;;;;;;;;;;5033457;28;20068;-77
2021/10/03 08:01:07;;;;;;;9.80;5.45;;;;;;;;;;5034310;28;20042;-86
2021/10/03 08:03:37;;;;;;;5.47;4.88;;;;;;;;;;5039340;28;20052;-77
2021/10/03 08:06:11;;;;;;;10.00;6.87;;;;;;;;;;5011872;28;20144;-77
2021/10/03 08:08:39;;;;;;;9.60;7.18;;;;;;;;;;5012939;28;20048;-78
2021/10/03 08:11:06;;;;;;;5.50;4.35;;;;;;;;;;5013128;28;20057;-85
2021/10/03 08:13:34;;;;;;;7.75;5.35;;;;;;;;;;5014392;28;20049;-83
2021/10/03 08:16:03;;;;;;;9.00;5.20;;;;;;;;;;5012485;28;20116;-76
2021/10/03 08:18:32;;;;;;;5.53;5.03;;;;;;;;;;5014350;28;20048;-82
2021/10/03 08:21:01;;;;;;;7.60;5.25;;;;;;;;;;5013195;28;20049;-76
2021/10/03 08:23:32;;;;;;;6.95;5.82;;;;;;;;;;5012635;28;20133;-77
2021/10/03 08:25:59;;;;;;;8.13;5.57;;;;;;;;;;5013920;28;20042;-78
2021/10/03 08:28:27;;;;;;;9.23;5.68;;;;;;;;;;5014515;28;20124;-79
2021/10/03 08:30:55;;;;;;;6.88;5.78;;;;;;;;;;5009941;28;20046;-76
2021/10/03 08:33:24;;;;;;;6.35;5.75;;;;;;;;;;5014256;28;20085;-75
2021/10/03 08:35:53;;;;;;;7.55;5.75;;;;;;;;;;5033103;28;20099;-80
2021/10/03 08:38:20;;;;;;;7.53;6.22;;;;;;;;;;5033043;28;20128;-81
2021/10/03 08:40:49;;;;;;;6.85;4.97;;;;;;;;;;5033520;28;20446;-76
2021/10/03 08:43:18;;;;;;;7.40;5.40;;;;;;;;;;5032925;28;20044;-83
2021/10/03 08:45:47;;;;;;;6.72;5.35;;;;;;;;;;5033958;28;20486;-84
2021/10/03 08:48:27;;;;;;;6.60;5.30;;;;;;;;;;5034077;28;20453;-87
2021/10/03 08:50:55;;;;;;;6.78;5.60;;;;;;;;;;5032742;28;20060;-85
2021/10/03 08:53:23;;;;;;;6.97;5.60;;;;;;;;;;5033134;28;20509;-84
2021/10/03 08:55:56;;;;;;;7.32;6.07;;;;;;;;;;5033668;28;20125;-80
2021/10/03 08:58:23;;;;;;;7.13;5.05;;;;;;;;;;5032140;28;20088;-82
2021/10/03 09:00:52;;;;;;;5.70;5.10;;;;;;;;;;5033350;28;20355;-83
2021/10/03 09:03:20;;;;;;;12.80;6.82;;;;;;;;;;5019491;28;20038;-76
2021/10/03 09:05:51;;;;;;;8.30;6.22;;;;;;;;;;5011437;28;20042;-79
2021/10/03 09:08:27;;;;;;;9.85;7.03;;;;;;;;;;5012284;28;20053;-77
2021/10/03 09:11:09;;;;;;;9.20;6.40;;;;;;;;;;5014531;28;20068;-82
2021/10/03 09:13:43;;;;;;;7.80;6.70;;;;;;;;;;5013117;28;20681;-77
2021/10/03 09:16:12;;;;;;;10.02;7.25;;;;;;;;;;5013128;28;20101;-80
2021/10/03 09:18:48;;;;;;;8.52;6.65;;;;;;;;;;5018273;28;20049;-81
2021/10/03 09:21:38;;;;;;;9.15;6.53;;;;;;;;;;5050662;28;20509;-78
2021/10/03 09:24:18;;;;;;;8.32;6.80;;;;;;;;;;5035637;28;20427;-81
2021/10/03 09:27:00;;;;;;;8.48;6.90;;;;;;;;;;5034110;28;20144;-82
2021/10/03 09:29:33;;;;;;;9.48;7.00;;;;;;;;;;5036152;28;20444;-80
2021/10/03 09:32:00;;;;;;;;;;;;;;;;;;5035555;28;20384;-80
2021/10/03 09:34:28;;;;;;;9.73;6.47;;;;;;;;;;5033563;28;20058;-79
2021/10/03 09:36:58;;;;;;;8.55;6.28;;;;;;;;;;5046579;28;20051;-78
2021/10/03 09:39:41;;;;;;;10.48;6.28;;;;;;;;;;5033127;28;20102;-79
2021/10/03 09:42:13;;;;;;;7.78;5.63;;;;;;;;;;5035965;28;20045;-83
2021/10/03 09:45:00;;;;;;;5.57;5.07;;;;;;;;;;5035044;28;20037;-74
2021/10/03 09:47:28;;;;;;;7.10;5.38;;;;;;;;;;5034999;28;20091;-75
2021/10/03 09:49:57;;;;;;;7.70;5.13;;;;;;;;;;5037100;28;20104;-83
2021/10/03 09:52:29;;;;;;;7.28;5.30;;;;;;;;;;5038287;28;20042;-75
2021/10/03 09:54:57;;;;;;;7.35;5.70;;;;;;;;;;5033484;28;20050;-78
2021/10/03 09:57:26;;;;;;;8.52;5.70;;;;;;;;;;5032986;28;20072;-76
2021/10/03 09:59:56;;;;;;;7.97;5.95;;;;;;;;;;5034192;28;20060;-78
2021/10/03 10:02:24;;;;;;;6.75;5.70;;;;;;;;;;5034403;28;20065;-75
2021/10/03 10:04:52;;;;;;;5.28;4.70;;;;;;;;;;5034462;28;20406;-79
2021/10/03 10:07:20;;;;;;;5.85;4.43;;;;;;;;;;5035104;28;20382;-76
2021/10/03 10:09:47;;;;;;;6.57;5.35;;;;;;;;;;5032946;28;20495;-77
2021/10/03 10:12:26;;;;;;;5.10;4.60;;;;;;;;;;5033145;28;20041;-79
2021/10/03 10:15:00;;;;;;;6.43;4.90;;;;;;;;;;5034809;28;20120;-76
2021/10/03 10:17:40;;;;;;;5.80;4.93;;;;;;;;;;5034598;28;20042;-79
2021/10/03 10:20:24;;;;;;;6.28;4.75;;;;;;;;;;5034718;28;20045;-76
2021/10/03 10:22:55;;;;;;;7.00;5.32;;;;;;;;;;5034572;28;20077;-77
2021/10/03 10:25:42;;;;;;;5.93;5.05;;;;;;;;;;5034291;28;20096;-75
2021/10/03 10:28:29;;;;;;;8.55;4.60;;;;;;;;;;5029568;28;20099;-75
2021/10/03 10:31:13;;;;;;;12.07;5.13;;;;;;;;;;5033836;28;20042;-80
2021/10/03 10:33:53;;;;;;;8.30;4.70;;;;;;;;;;5033931;28;20506;-80
2021/10/03 10:36:22;;;;;;;7.78;5.22;;;;;;;;;;5033845;28;20143;-80
2021/10/03 10:39:12;;;;;;;11.18;4.97;;;;;;;;;;5032870;28;20050;-75
2021/10/03 10:41:41;;;;;;;11.52;5.22;;;;;;;;;;5032866;28;20375;-78
2021/10/03 10:44:27;;;;;;;8.35;4.63;;;;;;;;;;5034000;28;20042;-78
2021/10/03 10:47:01;;;;;;;6.10;3.75;;;;;;;;;;5032584;28;20050;-79
2021/10/03 10:49:31;;;;;;;7.15;3.80;;;;;;;;;;5033586;28;20099;-80
2021/10/03 10:52:25;;;;;;;5.55;2.80;;;;;;;;;;5033619;28;20034;-80
2021/10/03 10:55:10;;;;;;;3.70;2.70;;;;;;;;;;5032202;28;20084;-76
2021/10/03 10:57:47;;;;;;;6.05;2.35;;;;;;;;;;5033887;28;20429;-80
2021/10/03 11:00:18;;;;;;;4.97;2.60;;;;;;;;;;5031979;28;20049;-79
2021/10/03 11:02:49;;;;;;;8.23;2.90;;;;;;;;;;5033456;28;20079;-76
2021/10/03 11:05:36;;;;;;;6.10;2.40;;;;;;;;;;5034407;28;20069;-80
2021/10/03 11:08:05;;;;;;;7.10;2.90;;;;;;;;;;5034345;28;20119;-80
2021/10/03 11:10:53;;;;;;;4.30;2.80;;;;;;;;;;5033438;28;20060;-76
2021/10/03 11:13:43;;;;;;;5.68;3.60;;;;;;;;;;5033450;28;20046;-76
2021/10/03 11:16:26;;;;;;;6.57;3.17;;;;;;;;;;5032786;28;20045;-76
2021/10/03 11:18:54;;;;;;;9.32;3.20;;;;;;;;;;5033316;28;20049;-76
2021/10/03 11:21:26;;;;;;;7.97;5.85;;;;;;;;;;5032255;28;20410;-76
2021/10/03 11:23:56;;;;;;;5.10;2.80;;;;;;;;;;5032071;28;20042;-75
2021/10/03 11:26:25;;;;;;;5.13;2.85;;;;;;;;;;5033648;28;20037;-79
2021/10/03 11:28:58;;;;;;;2.67;1.90;;;;;;;;;;5031502;28;20045;-75
2021/10/03 11:31:49;;;;;;;3.20;1.65;;;;;;;;;;5033349;28;20096;-75
2021/10/03 11:34:26;;;;;;;2.80;1.73;;;;;;;;;;5032940;28;20089;-76
2021/10/03 11:36:54;;;;;;;2.35;2.10;;;;;;;;;;5033246;28;20406;-76
2021/10/03 11:39:43;;;;;;;4.45;2.15;;;;;;;;;;5025709;28;20466;-80
2021/10/03 11:42:15;;;;;;;3.72;2.40;;;;;;;;;;5011678;28;20145;-78
2021/10/03 11:44:43;;;;;;;5.03;2.70;;;;;;;;;;5012089;28;20042;-79
2021/10/03 11:47:17;;;;;;;3.42;2.83;;;;;;;;;;5013707;28;20096;-78
2021/10/03 11:49:46;;;;;;;5.22;2.97;;;;;;;;;;5107146;23;20058;-76
2021/10/03 11:52:29;;;;;;;4.03;2.65;;;;;;;;;;5013067;28;20089;-74
2021/10/03 11:55:01;;;;;;;3.70;3.13;;;;;;;;;;5012995;28;20064;-76
2021/10/03 11:57:36;;;;;;;4.57;4.18;;;;;;;;;;5013180;28;20052;-83
2021/10/03 12:00:09;;;;;;;5.80;4.50;;;;;;;;;;5011588;28;20076;-84
2021/10/03 12:02:48;;;;;;;6.65;4.47;;;;;;;;;;5011921;28;20054;-75
2021/10/03 12:05:17;;;;;;;6.70;4.40;;;;;;;;;;5011780;28;20120;-83
2021/10/03 12:07:45;;;;;;;6.40;4.15;;;;;;;;;;5011719;28;20046;-77
2021/10/03 12:10:14;;;;;;;7.07;4.95;;;;;;;;;;5011931;28;20042;-76
2021/10/03 12:12:46;;;;;;;8.57;4.65;;;;;;;;;;5011560;28;20053;-74
2021/10/03 12:15:32;;;;;;;7.03;4.72;;;;;;;;;;5008509;28;20409;-83
2021/10/03 12:18:01;;;;;;;8.63;5.03;;;;;;;;;;5011887;28;20046;-76
2021/10/03 12:20:48;;;;;;;7.95;4.93;;;;;;;;;;5010994;28;20051;-78
2021/10/03 12:23:17;;;;;;;8.43;4.45;;;;;;;;;;5012792;28;20045;-78
2021/10/03 12:25:45;;;;;;;7.32;4.60;;;;;;;;;;5012832;28;20147;-77
2021/10/03 12:28:13;;;;;;;5.95;4.65;;;;;;;;;;5012395;28;20048;-74
2021/10/03 12:30:44;;;;;;;7.63;4.28;;;;;;;;;;5012452;28;20395;-74
2021/10/03 12:33:12;;;;;;;9.27;4.80;;;;;;;;;;5011115;28;20072;-74
2021/10/03 12:35:59;;;;;;;6.65;4.50;;;;;;;;;;5012390;28;20038;-74
2021/10/03 12:38:28;;;;;;;5.47;4.40;;;;;;;;;;5011153;28;20237;-76
2021/10/03 12:40:56;;;;;;;6.70;4.28;;;;;;;;;;5011244;28;20053;-76
2021/10/03 12:43:25;;;;;;;6.50;4.30;;;;;;;;;;5011076;28;20073;-77
2021/10/03 12:45:53;;;;;;;4.80;4.30;;;;;;;;;;5010839;28;20038;-78
2021/10/03 12:48:21;;;;;;;4.30;3.63;;;;;;;;;;5011325;28;20052;-74
2021/10/03 12:50:51;;;;;;;7.35;3.80;;;;;;;;;;4994822;28;20042;-78
2021/10/03 12:53:18;;;;;;;3.85;3.33;;;;;;;;;;5015825;28;20120;-76
2021/10/03 12:55:48;;;;;;;4.15;3.55;;;;;;;;;;5014916;28;20398;-78
2021/10/03 12:58:16;;;;;;;6.30;4.03;;;;;;;;;;5015384;28;20046;-76
2021/10/03 13:00:43;;;;;;;3.65;3.30;;;;;;;;;;5016473;28;20042;-78
2021/10/03 13:03:11;;;;;;;7.45;3.72;;;;;;;;;;5014976;28;20038;-77
2021/10/03 13:05:40;;;;;;;3.53;3.10;;;;;;;;;;5015979;28;20038;-74
2021/10/03 13:08:08;;;;;;;4.03;3.10;;;;;;;;;;5015023;28;20064;-76
2021/10/03 13:10:40;;;;;;;3.30;3.00;;;;;;;;;;4998069;28;20495;-77
2021/10/03 13:13:08;;;;;;;2.93;2.60;;;;;;;;;;4998102;28;20450;-77
2021/10/03 13:15:36;;;;;;;4.40;3.30;;;;;;;;;;4998905;28;20284;-79
2021/10/03 13:18:04;;;;;;;7.03;3.25;;;;;;;;;;5015838;28;20052;-74
2021/10/03 13:20:32;;;;;;;3.80;3.40;;;;;;;;;;5014399;28;20042;-78
2021/10/03 13:22:59;;;;;;;3.40;3.10;;;;;;;;;;5015850;28;20042;-78
2021/10/03 13:25:27;;;;;;;4.95;3.00;;;;;;;;;;5014166;28;20069;-76
2021/10/03 13:27:55;;;;;;;3.22;2.92;;;;;;;;;;5015830;28;20096;-84
2021/10/03 13:30:22;;;;;;;3.53;3.20;;;;;;;;;;5015433;28;20042;-84
2021/10/03 13:32:51;;;;;;;4.22;3.78;;;;;;;;;;4998187;28;20044;-77
2021/10/03 13:35:18;;;;;;;3.95;3.13;;;;;;;;;;5015294;28;20057;-76
2021/10/03 13:37:45;;;;;;;3.67;3.38;;;;;;;;;;5015169;28;20045;-74
2021/10/03 13:40:13;;;;;;;4.32;3.35;;;;;;;;;;5014035;28;20398;-84
2021/10/03 13:42:41;;;;;;;3.40;3.10;;;;;;;;;;5014339;28;20046;-83
2021/10/03 13:45:09;;;;;;;3.38;3.03;;;;;;;;;;5015148;28;20482;-77
2021/10/03 13:47:37;;;;;;;3.15;2.85;;;;;;;;;;5015217;28;20121;-76
2021/10/03 13:50:06;;;;;;;4.13;3.08;;;;;;;;;;4997195;28;20060;-83
2021/10/03 13:52:34;;;;;;;4.35;3.10;;;;;;;;;;5014121;28;20048;-78
2021/10/03 13:55:01;;;;;;;6.07;3.35;;;;;;;;;;5014535;28;20058;-76
2021/10/03 13:57:30;;;;;;;3.08;2.88;;;;;;;;;;5013734;28;20561;-78
2021/10/03 13:59:57;;;;;;;3.70;3.10;;;;;;;;;;5014024;28;20076;-78
2021/10/03 14:02:26;;;;;;;3.78;3.15;;;;;;;;;;5014814;28;20042;-84
2021/10/03 14:04:54;;;;;;;3.75;2.90;;;;;;;;;;5013535;28;20049;-74
2021/10/03 14:07:22;;;;;;;4.50;2.83;;;;;;;;;;5013742;28;20041;-78
2021/10/03 14:09:50;;;;;;;2.92;2.72;;;;;;;;;;5013043;28;20044;-78
2021/10/03 14:12:18;;;;;;;2.88;2.63;;;;;;;;;;5014875;28;20052;-83
2021/10/03 14:14:47;;;;;;;2.80;2.45;;;;;;;;;;5015026;28;20050;-74
2021/10/03 14:17:15;;;;;;;2.72;2.53;;;;;;;;;;5014016;28;20140;-78
2021/10/03 14:19:43;;;;;;;2.63;2.42;;;;;;;;;;5013067;28;20454;-74
2021/10/03 14:22:11;;;;;;;2.30;2.20;;;;;;;;;;5014554;28;20120;-74
2021/10/03 14:24:41;;;;;;;2.75;2.55;;;;;;;;;;5013666;28;20045;-74
2021/10/03 14:27:12;;;;;;;5.05;2.70;;;;;;;;;;4997619;28;20547;-76
2021/10/03 14:29:40;;;;;;;3.97;2.50;;;;;;;;;;5013509;28;20116;-78
2021/10/03 14:32:07;;;;;;;2.78;2.58;;;;;;;;;;5014107;28;20042;-76
2021/10/03 14:34:35;;;;;;;3.60;2.42;;;;;;;;;;5014347;28;20041;-74
2021/10/03 14:37:05;;;;;;;2.65;2.45;;;;;;;;;;5012923;28;20042;-77
2021/10/03 14:39:32;;;;;;;2.95;2.42;;;;;;;;;;4996584;28;20494;-74
2021/10/03 14:42:02;;;;;;;2.85;2.65;;;;;;;;;;5013534;28;20064;-84
2021/10/03 14:44:30;;;;;;;3.25;2.95;;;;;;;;;;4996742;28;20042;-76
2021/10/03 14:46:58;;;;;;;4.97;3.08;;;;;;;;;;5012974;28;20149;-74
2021/10/03 14:49:27;;;;;;;3.53;2.70;;;;;;;;;;5013741;28;20124;-76
2021/10/03 14:51:58;;;;;;;2.63;2.42;;;;;;;;;;5012768;28;20459;-78
2021/10/03 14:54:25;;;;;;;3.88;3.42;;;;;;;;;;5012511;28;20065;-84
2021/10/03 14:56:53;;;;;;;3.58;2.90;;;;;;;;;;5014101;28;20034;-78